Jamestown Regional Airport Jamestown US
ICAO: KJMS
IATA: JMS
Category: Medium
Scheduled Services: Yes

Elevation: 1500 ft
TransAlt. 18000 ft.

Airport Communications:
ASOS:118.425
MINNEAPOLIS CNTR:124.2
GRAND FORKS RDO:122.2
CTAF/UNICOM:123

KJMS Zoom In..

Runways:

(A) RW 04 length 5750 ft width 75 ft
---- / hdg 37

(B) RW 13 length 6502 ft width 100 ft
---- / hdg 127

(C) RW 22 length 5750 ft width 75 ft
---- / hdg 217

(D) RW 31 length 6502 ft width 100 ft
ILS 109.30 / hdg 307

Location; KJMS
Day. 21 / Time. 05.56 Zulu
* Altimeter: 30.07
* Temperature: 15° c. 59°f.
* Wind from: 350° Speed 04 kn.
Dewpoint: 14° c.
Visibility: 6 Statute Miles.
Clouds: Clear (automated report).
Conditions: Mist.

KJMS 210556Z AUTO 35004KT 6SM BR CLR 15/14 A3007 RMK AO2 SLP181 T01500144 10233 20150 402560150 51004


Wind From 350°
Speed 04 kn.

 
 
jpsmedia.com for Web Design worldairports.se 2018   terms of use